Airport View

Enter AWOS ICAO identifier for current METAR.

ex. KFNL

KX60 022350Z AUTO 08005KT 10SM CLR 27/19 A3008 RMK AO2 T02710194 10321 20271 403210222

2 Jun 2020 23:55

Frequency: 118.425

Phone: 352-528-9949

Other Area AWOS: KOCF - KGNV - KCGC - KINF

TAF KGNV 021721Z 0218/0318 09009KT P6SM SCT045 BKN120 FM022000 09010KT P6SM VCSH SCT045 BKN180 FM022200 11007KT P6SM SCT045 BKN150